sensor_id;sensor_type;location;lat;lon;timestamp;pressure;altitude;pressure_sealevel;temperature;humidity
51986;BME280;38002;53.296;6.600;2023-08-30T00:00:40;100971.63;;;13.98;83.90
51986;BME280;38002;53.296;6.600;2023-08-30T00:05:42;100976.81;;;13.93;84.27
51986;BME280;38002;53.296;6.600;2023-08-30T00:10:42;100970.19;;;13.88;84.70
51986;BME280;38002;53.296;6.600;2023-08-30T00:15:43;100972.44;;;13.84;84.69
51986;BME280;38002;53.296;6.600;2023-08-30T00:20:43;100959.31;;;13.80;84.85
51986;BME280;38002;53.296;6.600;2023-08-30T00:25:44;100956.72;;;13.78;84.87
51986;BME280;38002;53.296;6.600;2023-08-30T00:30:44;100949.06;;;13.74;84.84
51986;BME280;38002;53.296;6.600;2023-08-30T00:35:45;100955.06;;;13.69;84.77
51986;BME280;38002;53.296;6.600;2023-08-30T00:40:45;100960.22;;;13.64;85.03
51986;BME280;38002;53.296;6.600;2023-08-30T00:45:47;100951.53;;;13.60;84.95
51986;BME280;38002;53.296;6.600;2023-08-30T00:50:48;100944.09;;;13.54;84.93
51986;BME280;38002;53.296;6.600;2023-08-30T00:55:49;100951.97;;;13.49;85.48
51986;BME280;38002;53.296;6.600;2023-08-30T01:00:49;100954.19;;;13.46;85.71
51986;BME280;38002;53.296;6.600;2023-08-30T01:05:50;100952.00;;;13.41;85.36
51986;BME280;38002;53.296;6.600;2023-08-30T01:15:57;100954.41;;;13.36;85.66
51986;BME280;38002;53.296;6.600;2023-08-30T01:20:58;100948.63;;;13.31;88.62
51986;BME280;38002;53.296;6.600;2023-08-30T01:26:20;100937.00;;;13.37;87.00
51986;BME280;38002;53.296;6.600;2023-08-30T01:31:27;100932.38;;;13.38;85.96
51986;BME280;38002;53.296;6.600;2023-08-30T01:36:30;100936.63;;;13.40;86.63
51986;BME280;38002;53.296;6.600;2023-08-30T01:41:32;100929.63;;;13.38;86.34
51986;BME280;38002;53.296;6.600;2023-08-30T01:46:38;100932.72;;;13.35;86.09
51986;BME280;38002;53.296;6.600;2023-08-30T01:51:39;100932.41;;;13.30;86.44
51986;BME280;38002;53.296;6.600;2023-08-30T01:56:40;100940.13;;;13.26;86.53
51986;BME280;38002;53.296;6.600;2023-08-30T02:01:40;100935.19;;;13.22;86.73
51986;BME280;38002;53.296;6.600;2023-08-30T02:06:53;100919.31;;;13.17;86.84
51986;BME280;38002;53.296;6.600;2023-08-30T02:11:56;100909.13;;;13.11;86.52
51986;BME280;38002;53.296;6.600;2023-08-30T02:17:01;100895.13;;;13.06;86.68
51986;BME280;38002;53.296;6.600;2023-08-30T02:22:02;100906.03;;;13.06;86.86
51986;BME280;38002;53.296;6.600;2023-08-30T02:27:03;100906.56;;;13.01;86.77
51986;BME280;38002;53.296;6.600;2023-08-30T02:32:04;100899.56;;;12.99;86.74
51986;BME280;38002;53.296;6.600;2023-08-30T02:37:05;100899.78;;;12.97;86.88
51986;BME280;38002;53.296;6.600;2023-08-30T02:42:05;100895.50;;;12.95;87.50
51986;BME280;38002;53.296;6.600;2023-08-30T02:47:06;100894.13;;;12.99;87.48
51986;BME280;38002;53.296;6.600;2023-08-30T02:52:06;100883.19;;;12.99;87.53
51986;BME280;38002;53.296;6.600;2023-08-30T02:57:08;100876.53;;;13.01;87.18
51986;BME280;38002;53.296;6.600;2023-08-30T03:02:08;100867.13;;;13.04;87.50
51986;BME280;38002;53.296;6.600;2023-08-30T03:07:08;100860.28;;;13.08;87.55
51986;BME280;38002;53.296;6.600;2023-08-30T03:12:09;100866.44;;;13.10;87.55
51986;BME280;38002;53.296;6.600;2023-08-30T03:17:09;100873.78;;;13.09;87.44
51986;BME280;38002;53.296;6.600;2023-08-30T03:22:10;100855.69;;;13.08;86.84
51986;BME280;38002;53.296;6.600;2023-08-30T03:27:10;100858.09;;;13.03;87.22
51986;BME280;38002;53.296;6.600;2023-08-30T03:32:15;100854.22;;;12.98;87.24
51986;BME280;38002;53.296;6.600;2023-08-30T03:37:16;100840.63;;;12.90;87.21
51986;BME280;38002;53.296;6.600;2023-08-30T03:42:17;100837.56;;;12.85;87.08
51986;BME280;38002;53.296;6.600;2023-08-30T03:47:18;100840.34;;;12.77;87.03
51986;BME280;38002;53.296;6.600;2023-08-30T03:52:18;100840.53;;;12.67;86.84
51986;BME280;38002;53.296;6.600;2023-08-30T03:57:19;100833.22;;;12.59;86.77
51986;BME280;38002;53.296;6.600;2023-08-30T04:02:19;100833.91;;;12.53;87.27
51986;BME280;38002;53.296;6.600;2023-08-30T04:07:20;100818.09;;;12.49;87.16
51986;BME280;38002;53.296;6.600;2023-08-30T04:12:20;100806.84;;;12.44;87.29
51986;BME280;38002;53.296;6.600;2023-08-30T04:17:20;100800.91;;;12.40;87.55
51986;BME280;38002;53.296;6.600;2023-08-30T04:22:21;100794.09;;;12.36;87.30
51986;BME280;38002;53.296;6.600;2023-08-30T04:27:22;100797.34;;;12.32;87.55
51986;BME280;38002;53.296;6.600;2023-08-30T04:32:22;100803.16;;;12.28;87.38
51986;BME280;38002;53.296;6.600;2023-08-30T04:37:23;100784.22;;;12.27;87.38
51986;BME280;38002;53.296;6.600;2023-08-30T04:42:23;100784.41;;;12.25;87.79
51986;BME280;38002;53.296;6.600;2023-08-30T04:47:25;100778.13;;;12.25;88.01
51986;BME280;38002;53.296;6.600;2023-08-30T04:52:25;100774.72;;;12.23;88.10
51986;BME280;38002;53.296;6.600;2023-08-30T04:57:26;100769.09;;;12.24;88.11
51986;BME280;38002;53.296;6.600;2023-08-30T05:02:26;100766.16;;;12.26;88.08
51986;BME280;38002;53.296;6.600;2023-08-30T05:07:27;100760.38;;;12.29;88.19
51986;BME280;38002;53.296;6.600;2023-08-30T05:12:27;100759.66;;;12.35;88.33
51986;BME280;38002;53.296;6.600;2023-08-30T05:17:28;100758.13;;;12.41;88.51
51986;BME280;38002;53.296;6.600;2023-08-30T05:22:28;100754.88;;;12.45;88.35
51986;BME280;38002;53.296;6.600;2023-08-30T05:27:29;100752.47;;;12.50;88.81
51986;BME280;38002;53.296;6.600;2023-08-30T05:32:30;100744.41;;;12.57;88.51
51986;BME280;38002;53.296;6.600;2023-08-30T05:37:31;100753.41;;;12.65;88.65
51986;BME280;38002;53.296;6.600;2023-08-30T05:42:32;100744.50;;;12.71;89.02
51986;BME280;38002;53.296;6.600;2023-08-30T05:47:32;100737.97;;;12.81;89.42
51986;BME280;38002;53.296;6.600;2023-08-30T05:52:33;100727.88;;;12.89;88.82
51986;BME280;38002;53.296;6.600;2023-08-30T05:57:34;100725.25;;;12.96;88.67
51986;BME280;38002;53.296;6.600;2023-08-30T06:02:34;100730.53;;;12.97;89.44
51986;BME280;38002;53.296;6.600;2023-08-30T06:07:35;100726.72;;;13.06;88.76
51986;BME280;38002;53.296;6.600;2023-08-30T06:12:35;100716.97;;;13.12;89.04
51986;BME280;38002;53.296;6.600;2023-08-30T06:17:36;100719.66;;;13.20;89.06
51986;BME280;38002;53.296;6.600;2023-08-30T06:22:36;100722.34;;;13.28;89.23
51986;BME280;38002;53.296;6.600;2023-08-30T06:27:54;100715.41;;;13.40;89.39
51986;BME280;38002;53.296;6.600;2023-08-30T06:32:55;100701.28;;;13.51;89.09
51986;BME280;38002;53.296;6.600;2023-08-30T06:37:56;100700.16;;;13.60;88.83
51986;BME280;38002;53.296;6.600;2023-08-30T06:42:57;100703.03;;;13.67;88.75
51986;BME280;38002;53.296;6.600;2023-08-30T06:47:59;100706.88;;;13.73;87.67
51986;BME280;38002;53.296;6.600;2023-08-30T06:53:00;100702.72;;;13.77;87.42
51986;BME280;38002;53.296;6.600;2023-08-30T06:58:00;100698.78;;;13.79;87.87
51986;BME280;38002;53.296;6.600;2023-08-30T07:03:01;100696.91;;;13.80;87.73
51986;BME280;38002;53.296;6.600;2023-08-30T07:08:01;100703.50;;;13.85;87.24
51986;BME280;38002;53.296;6.600;2023-08-30T07:13:03;100690.59;;;13.94;87.84
51986;BME280;38002;53.296;6.600;2023-08-30T07:18:04;100679.38;;;14.03;86.92
51986;BME280;38002;53.296;6.600;2023-08-30T07:23:05;100667.69;;;14.09;86.49
51986;BME280;38002;53.296;6.600;2023-08-30T07:28:05;100668.81;;;14.15;86.48
51986;BME280;38002;53.296;6.600;2023-08-30T07:33:06;100675.06;;;14.24;86.33
51986;BME280;38002;53.296;6.600;2023-08-30T07:38:06;100672.22;;;14.32;85.90
51986;BME280;38002;53.296;6.600;2023-08-30T07:43:07;100657.88;;;14.44;85.89
51986;BME280;38002;53.296;6.600;2023-08-30T07:48:07;100658.41;;;14.54;85.26
51986;BME280;38002;53.296;6.600;2023-08-30T07:53:08;100666.84;;;14.74;84.98
51986;BME280;38002;53.296;6.600;2023-08-30T07:58:10;100665.59;;;14.98;84.44
51986;BME280;38002;53.296;6.600;2023-08-30T08:03:10;100668.47;;;15.11;83.21
51986;BME280;38002;53.296;6.600;2023-08-30T08:08:11;100680.22;;;15.26;83.84
51986;BME280;38002;53.296;6.600;2023-08-30T08:13:11;100694.03;;;15.39;82.89
51986;BME280;38002;53.296;6.600;2023-08-30T08:18:13;100687.84;;;15.52;83.08
51986;BME280;38002;53.296;6.600;2023-08-30T08:23:13;100683.31;;;15.66;82.43
51986;BME280;38002;53.296;6.600;2023-08-30T08:28:14;100696.06;;;15.80;82.52
51986;BME280;38002;53.296;6.600;2023-08-30T08:33:14;100696.75;;;15.88;82.21
51986;BME280;38002;53.296;6.600;2023-08-30T08:38:15;100695.97;;;15.95;81.76
51986;BME280;38002;53.296;6.600;2023-08-30T08:43:17;100699.81;;;16.00;81.38
51986;BME280;38002;53.296;6.600;2023-08-30T08:48:18;100701.47;;;16.01;76.52
51986;BME280;38002;53.296;6.600;2023-08-30T08:53:18;100697.59;;;16.17;80.76
51986;BME280;38002;53.296;6.600;2023-08-30T08:58:19;100698.28;;;16.32;80.38
51986;BME280;38002;53.296;6.600;2023-08-30T09:03:20;100704.28;;;16.49;79.95
51986;BME280;38002;53.296;6.600;2023-08-30T09:08:22;100705.56;;;16.53;79.17
51986;BME280;38002;53.296;6.600;2023-08-30T09:13:23;100706.41;;;16.47;79.10
51986;BME280;38002;53.296;6.600;2023-08-30T09:18:23;100706.16;;;16.42;79.14
51986;BME280;38002;53.296;6.600;2023-08-30T09:23:27;100704.44;;;16.34;78.06
51986;BME280;38002;53.296;6.600;2023-08-30T09:28:28;100705.84;;;16.23;77.99
51986;BME280;38002;53.296;6.600;2023-08-30T09:33:30;100699.72;;;16.21;78.38
51986;BME280;38002;53.296;6.600;2023-08-30T09:38:36;100698.22;;;16.19;78.00
51986;BME280;38002;53.296;6.600;2023-08-30T09:43:42;100688.94;;;16.20;78.14
51986;BME280;38002;53.296;6.600;2023-08-30T09:48:44;100691.06;;;16.24;78.68
51986;BME280;38002;53.296;6.600;2023-08-30T09:53:45;100680.97;;;16.31;77.91
51986;BME280;38002;53.296;6.600;2023-08-30T09:58:49;100683.94;;;16.37;77.59
51986;BME280;38002;53.296;6.600;2023-08-30T10:03:50;100684.84;;;16.44;77.87
51986;BME280;38002;53.296;6.600;2023-08-30T10:08:53;100681.47;;;16.48;78.06
51986;BME280;38002;53.296;6.600;2023-08-30T10:13:54;100676.47;;;16.58;77.84
51986;BME280;38002;53.296;6.600;2023-08-30T10:19:01;100662.19;;;16.76;77.72
51986;BME280;38002;53.296;6.600;2023-08-30T10:24:05;100666.66;;;16.97;77.69
51986;BME280;38002;53.296;6.600;2023-08-30T10:29:08;100667.09;;;17.07;77.39
51986;BME280;38002;53.296;6.600;2023-08-30T10:34:16;100649.56;;;17.08;76.61
51986;BME280;38002;53.296;6.600;2023-08-30T10:39:17;100653.38;;;17.13;77.09
51986;BME280;38002;53.296;6.600;2023-08-30T10:44:17;100651.50;;;17.20;77.39
51986;BME280;38002;53.296;6.600;2023-08-30T10:49:22;100655.91;;;17.21;76.79
51986;BME280;38002;53.296;6.600;2023-08-30T10:54:23;100654.63;;;17.17;76.53
51986;BME280;38002;53.296;6.600;2023-08-30T10:59:24;100643.03;;;17.29;77.34
51986;BME280;38002;53.296;6.600;2023-08-30T11:04:25;100646.00;;;17.34;77.04
51986;BME280;38002;53.296;6.600;2023-08-30T11:09:25;100636.47;;;17.30;77.22
51986;BME280;38002;53.296;6.600;2023-08-30T11:14:26;100631.81;;;17.37;77.44
51986;BME280;38002;53.296;6.600;2023-08-30T11:19:29;100636.88;;;17.40;77.62
51986;BME280;38002;53.296;6.600;2023-08-30T11:24:30;100631.38;;;17.40;77.35
51986;BME280;38002;53.296;6.600;2023-08-30T11:29:31;100633.28;;;17.39;77.53
51986;BME280;38002;53.296;6.600;2023-08-30T11:34:31;100628.44;;;17.35;77.97
51986;BME280;38002;53.296;6.600;2023-08-30T11:39:32;100623.78;;;17.35;78.04
51986;BME280;38002;53.296;6.600;2023-08-30T11:44:32;100615.31;;;17.43;78.10
51986;BME280;38002;53.296;6.600;2023-08-30T11:49:33;100629.28;;;17.55;78.47
51986;BME280;38002;53.296;6.600;2023-08-30T11:54:34;100627.59;;;17.60;77.94
51986;BME280;38002;53.296;6.600;2023-08-30T11:59:35;100623.13;;;17.53;77.69
51986;BME280;38002;53.296;6.600;2023-08-30T12:04:40;100613.66;;;17.42;78.10
51986;BME280;38002;53.296;6.600;2023-08-30T12:09:41;100619.13;;;17.49;78.26
51986;BME280;38002;53.296;6.600;2023-08-30T12:14:41;100615.31;;;17.43;78.25
51986;BME280;38002;53.296;6.600;2023-08-30T12:19:42;100611.50;;;17.44;78.74
51986;BME280;38002;53.296;6.600;2023-08-30T12:24:44;100606.25;;;17.43;78.61
51986;BME280;38002;53.296;6.600;2023-08-30T12:29:44;100604.94;;;17.39;78.84
51986;BME280;38002;53.296;6.600;2023-08-30T12:34:45;100600.94;;;17.35;78.55
51986;BME280;38002;53.296;6.600;2023-08-30T12:39:45;100599.06;;;17.29;79.10
51986;BME280;38002;53.296;6.600;2023-08-30T12:44:46;100593.34;;;17.23;79.12
51986;BME280;38002;53.296;6.600;2023-08-30T12:49:46;100594.41;;;17.16;79.74
51986;BME280;38002;53.296;6.600;2023-08-30T12:54:48;100589.75;;;16.97;81.47
51986;BME280;38002;53.296;6.600;2023-08-30T12:59:48;100584.88;;;16.92;80.68
51986;BME280;38002;53.296;6.600;2023-08-30T13:04:49;100583.38;;;16.83;81.23
51986;BME280;38002;53.296;6.600;2023-08-30T13:09:49;100596.28;;;16.76;81.35
51986;BME280;38002;53.296;6.600;2023-08-30T13:14:50;100594.97;;;16.65;81.76
51986;BME280;38002;53.296;6.600;2023-08-30T13:19:50;100605.06;;;16.52;82.26
51986;BME280;38002;53.296;6.600;2023-08-30T13:24:51;100606.69;;;16.40;82.73
51986;BME280;38002;53.296;6.600;2023-08-30T13:29:52;100608.97;;;16.23;82.79
51986;BME280;38002;53.296;6.600;2023-08-30T13:34:52;100615.25;;;16.10;83.30
51986;BME280;38002;53.296;6.600;2023-08-30T13:39:53;100632.53;;;16.04;83.52
51986;BME280;38002;53.296;6.600;2023-08-30T13:44:54;100616.69;;;16.00;83.51
51986;BME280;38002;53.296;6.600;2023-08-30T13:49:54;100622.53;;;15.90;83.58
51986;BME280;38002;53.296;6.600;2023-08-30T13:54:55;100630.31;;;15.86;84.16
51986;BME280;38002;53.296;6.600;2023-08-30T13:59:55;100617.47;;;15.87;84.44
51986;BME280;38002;53.296;6.600;2023-08-30T14:04:56;100610.91;;;15.88;84.61
51986;BME280;38002;53.296;6.600;2023-08-30T14:09:56;100602.66;;;15.88;84.75
51986;BME280;38002;53.296;6.600;2023-08-30T14:14:58;100612.81;;;15.87;84.74
51986;BME280;38002;53.296;6.600;2023-08-30T14:19:58;100612.34;;;15.84;85.23
51986;BME280;38002;53.296;6.600;2023-08-30T14:24:59;100609.00;;;15.88;85.46
51986;BME280;38002;53.296;6.600;2023-08-30T14:30:00;100618.31;;;15.94;85.51
51986;BME280;38002;53.296;6.600;2023-08-30T14:35:03;100631.00;;;15.95;85.55
51986;BME280;38002;53.296;6.600;2023-08-30T14:40:04;100629.31;;;15.94;85.45
51986;BME280;38002;53.296;6.600;2023-08-30T14:45:06;100612.91;;;16.07;86.22
51986;BME280;38002;53.296;6.600;2023-08-30T14:50:07;100599.88;;;16.22;86.00
51986;BME280;38002;53.296;6.600;2023-08-30T14:55:08;100613.66;;;16.35;86.31
51986;BME280;38002;53.296;6.600;2023-08-30T15:00:09;100600.16;;;16.41;85.86
51986;BME280;38002;53.296;6.600;2023-08-30T15:05:09;100615.59;;;16.48;86.03
51986;BME280;38002;53.296;6.600;2023-08-30T15:10:10;100619.06;;;16.63;86.33
51986;BME280;38002;53.296;6.600;2023-08-30T15:15:10;100605.56;;;16.75;85.38
51986;BME280;38002;53.296;6.600;2023-08-30T15:20:11;100604.72;;;16.74;85.30
51986;BME280;38002;53.296;6.600;2023-08-30T15:25:11;100613.78;;;16.75;85.35
51986;BME280;38002;53.296;6.600;2023-08-30T15:30:12;100607.25;;;16.76;85.40
51986;BME280;38002;53.296;6.600;2023-08-30T15:35:13;100619.94;;;16.77;85.54
51986;BME280;38002;53.296;6.600;2023-08-30T15:40:14;100595.84;;;16.79;85.67
51986;BME280;38002;53.296;6.600;2023-08-30T15:45:16;100608.97;;;16.97;85.89
51986;BME280;38002;53.296;6.600;2023-08-30T15:50:16;100614.25;;;17.05;85.61
51986;BME280;38002;53.296;6.600;2023-08-30T15:55:17;100618.72;;;17.12;85.58
51986;BME280;38002;53.296;6.600;2023-08-30T16:00:18;100618.06;;;17.10;85.26
51986;BME280;38002;53.296;6.600;2023-08-30T16:05:21;100629.25;;;16.96;85.19
51986;BME280;38002;53.296;6.600;2023-08-30T16:10:22;100623.75;;;16.83;85.24
51986;BME280;38002;53.296;6.600;2023-08-30T16:15:22;100626.69;;;16.68;85.21
51986;BME280;38002;53.296;6.600;2023-08-30T16:20:24;100624.47;;;16.57;85.40
51986;BME280;38002;53.296;6.600;2023-08-30T16:25:24;100622.78;;;16.49;85.70
51986;BME280;38002;53.296;6.600;2023-08-30T16:30:27;100625.28;;;16.38;85.66
51986;BME280;38002;53.296;6.600;2023-08-30T16:35:29;100633.25;;;16.26;85.86
51986;BME280;38002;53.296;6.600;2023-08-30T16:40:29;100614.44;;;16.16;86.27
51986;BME280;38002;53.296;6.600;2023-08-30T16:45:30;100618.41;;;16.14;86.35
51986;BME280;38002;53.296;6.600;2023-08-30T16:50:31;100615.91;;;16.12;86.70
51986;BME280;38002;53.296;6.600;2023-08-30T16:55:32;100626.00;;;16.12;86.74
51986;BME280;38002;53.296;6.600;2023-08-30T17:00:32;100623.94;;;16.20;87.18
51986;BME280;38002;53.296;6.600;2023-08-30T17:05:38;100619.97;;;16.29;87.07
51986;BME280;38002;53.296;6.600;2023-08-30T17:10:39;100631.19;;;16.34;86.97
51986;BME280;38002;53.296;6.600;2023-08-30T17:15:39;100642.59;;;16.45;87.25
51986;BME280;38002;53.296;6.600;2023-08-30T17:20:40;100635.88;;;16.54;87.51
51986;BME280;38002;53.296;6.600;2023-08-30T17:25:40;100642.28;;;16.61;87.40
51986;BME280;38002;53.296;6.600;2023-08-30T17:30:41;100650.31;;;16.62;87.24
51986;BME280;38002;53.296;6.600;2023-08-30T17:35:41;100647.78;;;16.61;87.57
51986;BME280;38002;53.296;6.600;2023-08-30T17:40:42;100651.31;;;16.55;87.28
51986;BME280;38002;53.296;6.600;2023-08-30T17:45:43;100642.41;;;16.53;87.27
51986;BME280;38002;53.296;6.600;2023-08-30T17:50:45;100648.13;;;16.51;87.41
51986;BME280;38002;53.296;6.600;2023-08-30T17:55:56;100651.91;;;16.44;87.55
51986;BME280;38002;53.296;6.600;2023-08-30T18:00:57;100650.84;;;16.38;87.66
51986;BME280;38002;53.296;6.600;2023-08-30T18:06:02;100657.53;;;16.29;87.51
51986;BME280;38002;53.296;6.600;2023-08-30T18:11:13;100657.06;;;16.19;87.05
51986;BME280;38002;53.296;6.600;2023-08-30T18:16:17;100667.78;;;16.07;87.20
51986;BME280;38002;53.296;6.600;2023-08-30T18:21:18;100672.13;;;15.95;87.19
51986;BME280;38002;53.296;6.600;2023-08-30T18:26:18;100677.97;;;15.85;86.70
51986;BME280;38002;53.296;6.600;2023-08-30T18:31:19;100699.22;;;15.77;87.18
51986;BME280;38002;53.296;6.600;2023-08-30T18:36:19;100695.78;;;15.68;87.07
51986;BME280;38002;53.296;6.600;2023-08-30T18:41:22;100699.91;;;15.58;87.06
51986;BME280;38002;53.296;6.600;2023-08-30T18:46:23;100701.75;;;15.51;86.84
51986;BME280;38002;53.296;6.600;2023-08-30T18:51:23;100699.31;;;15.41;86.85
51986;BME280;38002;53.296;6.600;2023-08-30T18:56:24;100697.09;;;15.30;86.82
51986;BME280;38002;53.296;6.600;2023-08-30T19:01:25;100697.44;;;15.20;87.09
51986;BME280;38002;53.296;6.600;2023-08-30T19:06:29;100697.75;;;15.11;86.93
51986;BME280;38002;53.296;6.600;2023-08-30T19:11:30;100690.91;;;15.00;87.28
51986;BME280;38002;53.296;6.600;2023-08-30T19:16:30;100697.97;;;14.88;86.66
51986;BME280;38002;53.296;6.600;2023-08-30T19:21:31;100704.94;;;14.76;87.08
51986;BME280;38002;53.296;6.600;2023-08-30T19:26:32;100719.34;;;14.63;86.87
51986;BME280;38002;53.296;6.600;2023-08-30T19:31:33;100722.56;;;14.52;86.95
51986;BME280;38002;53.296;6.600;2023-08-30T19:36:35;100718.25;;;14.43;87.02
51986;BME280;38002;53.296;6.600;2023-08-30T19:41:37;100709.44;;;14.33;87.08
51986;BME280;38002;53.296;6.600;2023-08-30T19:46:37;100716.91;;;14.24;87.19
51986;BME280;38002;53.296;6.600;2023-08-30T19:51:37;100729.34;;;14.12;86.55
51986;BME280;38002;53.296;6.600;2023-08-30T19:56:38;100737.19;;;14.00;86.63
51986;BME280;38002;53.296;6.600;2023-08-30T20:01:38;100741.88;;;13.92;86.93
51986;BME280;38002;53.296;6.600;2023-08-30T20:06:39;100746.13;;;13.80;87.02
51986;BME280;38002;53.296;6.600;2023-08-30T20:11:39;100765.97;;;13.74;87.17
51986;BME280;38002;53.296;6.600;2023-08-30T20:16:40;100760.59;;;13.66;86.66
51986;BME280;38002;53.296;6.600;2023-08-30T20:21:40;100763.00;;;13.60;86.99
51986;BME280;38002;53.296;6.600;2023-08-30T20:26:44;100769.72;;;13.58;86.68
51986;BME280;38002;53.296;6.600;2023-08-30T20:31:49;100779.78;;;13.57;87.28
51986;BME280;38002;53.296;6.600;2023-08-30T20:36:50;100778.94;;;13.57;87.18
51986;BME280;38002;53.296;6.600;2023-08-30T20:41:50;100775.34;;;13.56;87.18
51986;BME280;38002;53.296;6.600;2023-08-30T20:46:54;100765.09;;;13.58;87.76
51986;BME280;38002;53.296;6.600;2023-08-30T20:51:54;100762.72;;;13.55;87.23
51986;BME280;38002;53.296;6.600;2023-08-30T20:56:55;100760.19;;;13.54;87.33
51986;BME280;38002;53.296;6.600;2023-08-30T21:02:00;100760.34;;;13.52;87.70
51986;BME280;38002;53.296;6.600;2023-08-30T21:07:01;100763.81;;;13.46;87.77
51986;BME280;38002;53.296;6.600;2023-08-30T21:12:01;100767.28;;;13.40;87.33
51986;BME280;38002;53.296;6.600;2023-08-30T21:17:03;100779.13;;;13.33;87.91
51986;BME280;38002;53.296;6.600;2023-08-30T21:22:03;100769.94;;;13.26;87.98
51986;BME280;38002;53.296;6.600;2023-08-30T21:27:04;100780.75;;;13.19;87.82
51986;BME280;38002;53.296;6.600;2023-08-30T21:32:05;100779.75;;;13.12;87.83
51986;BME280;38002;53.296;6.600;2023-08-30T21:37:05;100773.47;;;13.03;87.56
51986;BME280;38002;53.296;6.600;2023-08-30T21:42:06;100782.25;;;12.91;87.78
51986;BME280;38002;53.296;6.600;2023-08-30T21:47:06;100779.56;;;12.83;87.90
51986;BME280;38002;53.296;6.600;2023-08-30T21:52:07;100781.69;;;12.72;87.72
51986;BME280;38002;53.296;6.600;2023-08-30T21:57:07;100774.38;;;12.65;87.61
51986;BME280;38002;53.296;6.600;2023-08-30T22:02:08;100776.97;;;12.58;87.72
51986;BME280;38002;53.296;6.600;2023-08-30T22:07:08;100775.47;;;12.48;87.83
51986;BME280;38002;53.296;6.600;2023-08-30T22:12:09;100772.78;;;12.40;88.20
51986;BME280;38002;53.296;6.600;2023-08-30T22:17:09;100764.94;;;12.37;88.14
51986;BME280;38002;53.296;6.600;2023-08-30T22:22:10;100768.03;;;12.34;88.11
51986;BME280;38002;53.296;6.600;2023-08-30T22:27:10;100775.03;;;12.28;88.57
51986;BME280;38002;53.296;6.600;2023-08-30T22:32:12;100775.41;;;12.25;88.32
51986;BME280;38002;53.296;6.600;2023-08-30T22:37:12;100769.41;;;12.21;88.31
51986;BME280;38002;53.296;6.600;2023-08-30T22:42:13;100778.13;;;12.17;88.51
51986;BME280;38002;53.296;6.600;2023-08-30T22:47:14;100772.16;;;12.13;88.47
51986;BME280;38002;53.296;6.600;2023-08-30T22:52:14;100768.44;;;12.06;88.42
51986;BME280;38002;53.296;6.600;2023-08-30T22:57:15;100773.41;;;12.03;88.65
51986;BME280;38002;53.296;6.600;2023-08-30T23:02:15;100780.88;;;12.01;88.62
51986;BME280;38002;53.296;6.600;2023-08-30T23:07:16;100776.16;;;11.95;88.72
51986;BME280;38002;53.296;6.600;2023-08-30T23:12:16;100777.53;;;11.91;88.96
51986;BME280;38002;53.296;6.600;2023-08-30T23:17:17;100774.97;;;11.89;89.08
51986;BME280;38002;53.296;6.600;2023-08-30T23:22:17;100774.47;;;11.86;88.70
51986;BME280;38002;53.296;6.600;2023-08-30T23:27:18;100783.81;;;11.83;88.70
51986;BME280;38002;53.296;6.600;2023-08-30T23:32:19;100778.72;;;11.80;88.59
51986;BME280;38002;53.296;6.600;2023-08-30T23:37:19;100780.09;;;11.76;88.27
51986;BME280;38002;53.296;6.600;2023-08-30T23:42:20;100786.00;;;11.71;88.57
51986;BME280;38002;53.296;6.600;2023-08-30T23:47:20;100784.66;;;11.67;88.42
51986;BME280;38002;53.296;6.600;2023-08-30T23:52:21;100796.56;;;11.66;87.88
51986;BME280;38002;53.296;6.600;2023-08-30T23:57:22;100789.25;;;11.67;88.38
